Time;durP1;ratioP1;P1;durP2;ratioP2;P2;SDS_P1;SDS_P2;PMS_P1;PMS_P2;Temp;Humidity;BMP_temperature;BMP_pressure;BME280_temperature;BME280_humidity;BME280_pressure;Samples;Min_cycle;Max_cycle;Signal;HPM_P1;HPM_P2
2022/10/17 00:02:16;;;;;;;;;21.00;18.75;;;;;12.47;71.15;101909.91;146606;592;46020;-77
2022/10/17 00:05:11;;;;;;;;;18.25;16.25;;;;;14.24;71.03;102227.34;146604;582;46012;-74
2022/10/17 00:08:06;;;;;;;;;19.00;19.00;;;;;14.20;71.76;102233.19;146606;588;46012;-78
2022/10/17 00:11:18;;;;;;;;;21.50;20.00;;;;;14.21;71.18;102223.66;146604;610;46013;-79
2022/10/17 00:14:13;;;;;;;;;18.25;16.75;;;;;14.18;71.49;102229.59;146605;641;46020;-77
2022/10/17 00:17:20;;;;;;;;;;;;;;;;;;;;;
2022/10/17 00:20:24;;;;;;;;;19.00;16.50;;;;;14.21;71.06;102234.09;146605;580;46020;-75
2022/10/17 00:23:20;;;;;;;;;16.25;15.25;;;;;14.16;71.39;102239.03;146601;634;46016;-82
2022/10/17 00:26:17;;;;;;;;;17.50;16.00;;;;;14.14;71.49;102237.13;146605;569;46010;-75
2022/10/17 00:29:16;;;;;;;;;16.00;15.50;;;;;14.13;71.47;102232.72;146606;569;46913;-87
2022/10/17 00:32:09;;;;;;;;;20.00;15.00;;;;;14.17;71.79;102232.09;146613;587;46020;-85
2022/10/17 00:35:07;;;;;;;;;15.50;15.25;;;;;14.20;72.21;102235.78;146610;634;46017;-83
2022/10/17 00:38:03;;;;;;;;;20.00;18.00;;;;;14.25;71.39;102239.59;146615;630;46010;-84
2022/10/17 00:40:56;;;;;;;;;19.50;19.50;;;;;14.26;71.62;102237.88;146607;634;46017;-79
2022/10/17 00:44:08;;;;;;;;;19.75;19.75;;;;;14.21;71.48;102240.22;146613;567;46020;-80
2022/10/17 00:47:14;;;;;;;;;23.00;22.00;;;;;14.08;72.76;102233.34;146610;589;46015;-87
2022/10/17 00:50:15;;;;;;;;;22.75;20.75;;;;;14.00;72.49;102237.19;146613;572;46020;-80
2022/10/17 00:53:14;;;;;;;;;23.00;19.25;;;;;13.96;72.63;102234.31;146608;683;46024;-83
2022/10/17 00:56:06;;;;;;;;;20.00;20.00;;;;;14.04;73.22;102238.28;146611;590;46021;-82
2022/10/17 00:59:00;;;;;;;;;19.25;17.75;;;;;14.05;72.87;102237.50;146610;587;46913;-81
2022/10/17 01:02:12;;;;;;;;;17.75;17.75;;;;;14.01;72.30;102236.38;146614;581;46010;-82
2022/10/17 01:05:05;;;;;;;;;23.75;21.00;;;;;14.03;72.69;102233.87;146606;580;46016;-85
2022/10/17 01:08:00;;;;;;;;;19.50;18.75;;;;;14.03;72.77;102233.87;146611;591;46020;-80
2022/10/17 01:11:53;;;;;;;;;21.50;18.00;;;;;12.23;72.25;101909.25;146611;619;46012;-79
2022/10/17 01:15:33;;;;;;;;;19.00;19.00;;;;;12.22;72.12;101920.47;146614;656;45020;-85
2022/10/17 01:19:01;;;;;;;;;19.00;17.75;;;;;13.96;72.47;102227.38;146611;579;46016;-79
2022/10/17 01:22:11;;;;;;;;;23.00;19.00;;;;;13.96;72.77;102229.09;146611;665;46020;-78
2022/10/17 01:25:48;;;;;;;;;20.50;18.00;;;;;11.97;72.12;101872.09;146611;623;46017;-78
2022/10/17 01:29:37;;;;;;;;;18.50;17.50;;;;;12.11;72.23;101890.28;146610;582;46012;-77
2022/10/17 01:33:03;;;;;;;;;18.75;18.75;;;;;14.06;72.87;102227.13;146604;573;46017;-74
2022/10/17 01:36:24;;;;;;;;;21.50;19.00;;;;;14.06;72.72;102216.72;146604;564;46020;-76
2022/10/17 01:40:03;;;;;;;;;20.25;18.00;;;;;12.39;72.13;101912.00;146602;593;46912;-79
2022/10/17 01:43:17;;;;;;;;;19.25;17.50;;;;;14.12;73.34;102224.00;146607;569;46020;-76
2022/10/17 01:46:34;;;;;;;;;20.75;18.50;;;;;14.10;73.24;102226.50;146605;570;46012;-82
2022/10/17 01:49:48;;;;;;;;;17.50;17.25;;;;;14.08;73.11;102220.31;146605;595;46020;-81
2022/10/17 01:52:55;;;;;;;;;21.00;17.25;;;;;14.13;73.72;102222.28;146605;577;46016;-83
2022/10/17 01:55:55;;;;;;;;;19.25;16.75;;;;;14.17;73.19;102232.09;146605;596;46012;-82
2022/10/17 01:59:02;;;;;;;;;22.00;22.00;;;;;14.18;73.37;102228.69;146604;569;46016;-87
2022/10/17 02:01:59;;;;;;;;;18.75;17.50;;;;;14.22;73.38;102228.06;146599;570;47010;-89
2022/10/17 02:05:17;;;;;;;;;21.25;19.25;;;;;14.27;73.31;102230.16;146601;595;46016;-85
2022/10/17 02:08:21;;;;;;;;;22.50;19.75;;;;;14.31;73.20;102234.75;146605;573;46020;-90
2022/10/17 02:11:33;;;;;;;;;21.75;18.75;;;;;14.31;72.46;102241.66;146601;598;46032;-79
2022/10/17 02:14:59;;;;;;;;;22.75;21.25;;;;;14.37;72.53;102238.53;146605;737;46010;-78
2022/10/17 02:18:32;;;;;;;;;16.00;15.75;;;;;14.44;72.01;102249.41;146603;586;46033;-73
2022/10/17 02:22:06;;;;;;;;;;;;;;;;;;;;;
2022/10/17 02:25:46;;;;;;;;;19.50;18.25;;;;;12.55;71.92;101915.56;146604;629;46017;-72
2022/10/17 02:29:25;;;;;;;;;19.00;18.50;;;;;12.57;71.99;101929.59;146602;720;46020;-78
2022/10/17 02:32:34;;;;;;;;;21.50;18.25;;;;;14.45;72.30;102252.91;146607;606;46016;-77
2022/10/17 02:35:34;;;;;;;;;20.50;18.00;;;;;14.49;72.10;102250.59;146608;577;46023;-78
2022/10/17 02:38:41;;;;;;;;;20.75;20.50;;;;;14.53;72.98;102254.31;146612;607;46916;-76
2022/10/17 02:41:36;;;;;;;;;21.50;20.50;;;;;14.52;73.11;102258.66;146611;581;46020;-75
2022/10/17 02:44:34;;;;;;;;;20.00;18.00;;;;;14.46;72.83;102262.56;146608;559;46016;-77
2022/10/17 02:48:02;;;;;;;;;19.25;18.25;;;;;12.52;72.19;101921.47;146613;626;46010;-75
2022/10/17 02:51:46;;;;;;;;;19.25;17.75;;;;;12.56;72.61;101927.81;146605;598;46016;-76
2022/10/17 02:55:05;;;;;;;;;18.00;17.75;;;;;14.48;72.47;102272.28;146612;571;46012;-77
2022/10/17 02:58:28;;;;;;;;;21.75;19.00;;;;;12.58;72.05;101940.06;146610;624;46016;-74
2022/10/17 03:01:27;;;;;;;;;24.00;18.50;;;;;14.49;72.54;102279.31;146613;592;46011;-74
2022/10/17 03:04:38;;;;;;;;;21.50;20.50;;;;;14.57;72.69;102277.19;146607;597;47014;-79
2022/10/17 03:07:30;;;;;;;;;19.75;19.75;;;;;14.60;72.71;102282.59;146612;576;46020;-77
2022/10/17 03:10:39;;;;;;;;;24.00;22.00;;;;;14.60;72.62;102272.12;146610;588;46016;-83
2022/10/17 03:13:45;;;;;;;;;24.75;23.00;;;;;14.61;71.92;102268.75;146614;592;46012;-83
2022/10/17 03:16:44;;;;;;;;;21.50;20.75;;;;;14.64;72.37;102275.84;146609;588;46017;-84
2022/10/17 03:19:44;;;;;;;;;21.75;20.75;;;;;14.61;72.29;102281.78;146611;573;46020;-73
2022/10/17 03:22:54;;;;;;;;;21.00;19.25;;;;;14.58;71.78;102289.44;146612;647;46015;-85
2022/10/17 03:25:53;;;;;;;;;23.50;22.25;;;;;14.52;72.50;102289.97;146616;592;46010;-77
2022/10/17 03:28:50;;;;;;;;;21.50;19.75;;;;;14.41;72.84;102283.16;146612;667;46012;-78
2022/10/17 03:31:47;;;;;;;;;24.50;24.50;;;;;14.33;73.33;102276.59;146608;565;46021;-79
2022/10/17 03:34:39;;;;;;;;;24.00;22.50;;;;;14.25;73.72;102283.94;146607;565;46012;-80
2022/10/17 03:37:32;;;;;;;;;24.00;23.00;;;;;14.14;74.18;102284.97;146603;592;46020;-73
2022/10/17 03:40:30;;;;;;;;;24.25;21.75;;;;;14.02;74.73;102285.16;146604;575;46016;-75
2022/10/17 03:43:28;;;;;;;;;27.50;25.00;;;;;13.93;74.05;102294.09;146602;595;46020;-75
2022/10/17 03:46:22;;;;;;;;;26.25;23.25;;;;;13.88;74.30;102285.97;146600;573;46017;-74
2022/10/17 03:49:29;;;;;;;;;20.75;19.75;;;;;13.85;74.66;102294.50;146606;565;46020;-76
2022/10/17 03:52:38;;;;;;;;;23.50;22.00;;;;;13.77;74.52;102281.78;146604;597;46013;-83
2022/10/17 03:55:34;;;;;;;;;26.50;23.75;;;;;13.78;74.90;102288.81;146607;569;45020;-83
2022/10/17 03:58:32;;;;;;;;;25.25;23.50;;;;;13.76;74.53;102298.25;146604;581;46012;-83
2022/10/17 04:01:37;;;;;;;;;;;;;;;;;;;;;
2022/10/17 04:04:36;;;;;;;;;22.75;21.75;;;;;13.63;74.66;102293.97;146604;607;46913;-84
2022/10/17 04:07:43;;;;;;;;;23.75;22.50;;;;;13.62;74.65;102305.19;146602;635;46020;-81
2022/10/17 04:10:54;;;;;;;;;24.25;22.50;;;;;13.60;74.92;102301.56;146602;576;46016;-87
2022/10/17 04:13:49;;;;;;;;;25.75;22.75;;;;;13.57;74.36;102298.78;146604;581;46020;-77
2022/10/17 04:16:56;;;;;;;;;25.50;24.50;;;;;13.53;73.83;102299.38;146600;597;46916;-77
2022/10/17 04:19:54;;;;;;;;;28.75;25.75;;;;;13.52;74.87;102306.31;146608;611;46010;-78
2022/10/17 04:22:47;;;;;;;;;22.50;21.50;;;;;13.48;74.74;102317.31;146602;593;46016;-78
2022/10/17 04:25:48;;;;;;;;;23.00;23.00;;;;;13.42;74.46;102303.00;146604;597;46020;-78
2022/10/17 04:28:41;;;;;;;;;24.50;22.50;;;;;13.47;75.00;102317.25;146604;566;46015;-77
2022/10/17 04:31:40;;;;;;;;;28.25;21.75;;;;;13.42;74.53;102319.53;146608;578;45028;-77
2022/10/17 04:34:37;;;;;;;;;24.50;23.50;;;;;13.36;74.83;102317.44;146601;566;46915;-79
2022/10/17 04:37:39;;;;;;;;;22.00;21.75;;;;;13.37;74.75;102311.44;146604;580;46021;-80
2022/10/17 04:40:34;;;;;;;;;31.50;24.25;;;;;13.40;74.77;102318.53;146606;627;46012;-72
2022/10/17 04:43:37;;;;;;;;;28.25;24.50;;;;;11.75;75.01;102043.00;146605;583;46020;-72
2022/10/17 04:46:35;;;;;;;;;25.00;23.25;;;;;13.26;75.11;102321.94;146603;615;46016;-72
2022/10/17 04:49:32;;;;;;;;;27.25;24.25;;;;;13.32;75.05;102327.56;146605;577;46020;-72
2022/10/17 04:52:28;;;;;;;;;27.00;24.00;;;;;13.37;75.37;102328.78;146602;586;46916;-73
2022/10/17 04:55:29;;;;;;;;;32.00;26.75;;;;;13.40;75.09;102340.28;146604;602;46020;-78
2022/10/17 04:58:36;;;;;;;;;26.75;26.00;;;;;13.38;75.04;102336.66;146603;564;46916;-71
2022/10/17 05:01:39;;;;;;;;;29.50;24.75;;;;;13.36;74.36;102338.28;146607;590;46020;-71
2022/10/17 05:04:38;;;;;;;;;28.00;25.50;;;;;13.36;75.28;102338.28;146601;573;46016;-72
2022/10/17 05:07:45;;;;;;;;;28.00;24.50;;;;;13.38;74.77;102340.97;146602;585;46021;-71
2022/10/17 05:10:46;;;;;;;;;26.25;26.25;;;;;13.40;74.95;102348.09;146604;648;46012;-72
2022/10/17 05:13:50;;;;;;;;;30.25;25.50;;;;;13.43;75.57;102349.09;146606;590;46010;-70
2022/10/17 05:16:49;;;;;;;;;23.00;21.25;;;;;13.80;77.40;102349.75;146602;599;46915;-70
2022/10/17 05:19:45;;;;;;;;;25.75;24.00;;;;;14.55;75.19;102357.12;146606;652;46010;-70
2022/10/17 05:22:50;;;;;;;;;25.50;23.00;;;;;15.30;73.58;102358.09;146601;570;46014;-70
2022/10/17 05:25:45;;;;;;;;;28.25;24.75;;;;;16.06;69.86;102362.44;146605;577;46029;-71
2022/10/17 05:28:43;;;;;;;;;24.75;23.00;;;;;16.76;68.27;102359.19;146603;564;46017;-70
2022/10/17 05:31:41;;;;;;;;;25.50;21.75;;;;;17.31;65.72;102367.25;146606;569;46020;-70
2022/10/17 05:34:37;;;;;;;;;22.25;20.25;;;;;17.84;65.80;102368.09;146600;614;47916;-71
2022/10/17 05:37:41;;;;;;;;;23.50;22.25;;;;;18.12;63.42;102370.31;146605;581;46020;-75
2022/10/17 05:40:38;;;;;;;;;21.25;21.25;;;;;18.16;62.07;102372.22;146604;563;46016;-75
2022/10/17 05:43:54;;;;;;;;;;;;;;;;;;;;;
2022/10/17 05:46:56;;;;;;;;;24.50;21.50;;;;;18.24;62.75;102377.03;146598;572;48012;-74
2022/10/17 05:49:50;;;;;;;;;29.00;25.00;;;;;18.30;60.49;102384.28;146605;586;46010;-69
2022/10/17 05:52:45;;;;;;;;;29.75;25.25;;;;;18.07;61.51;102391.09;146602;692;46017;-69
2022/10/17 05:56:02;;;;;;;;;35.25;31.00;;;;;16.24;63.83;102061.56;146606;734;46010;-70
2022/10/17 05:58:58;;;;;;;;;40.00;34.75;;;;;18.34;62.22;102393.19;146604;641;46013;-71
2022/10/17 06:01:53;;;;;;;;;49.75;41.25;;;;;18.45;62.94;102398.12;146609;564;45020;-70
2022/10/17 06:04:47;;;;;;;;;48.25;39.00;;;;;18.74;62.94;102406.44;146600;612;46016;-71
2022/10/17 06:07:39;;;;;;;;;45.75;37.00;;;;;19.04;59.79;102404.28;146597;585;48912;-72
2022/10/17 06:10:40;;;;;;;;;41.75;34.00;;;;;19.08;60.08;102405.31;146604;652;46012;-71
2022/10/17 06:13:40;;;;;;;;;59.50;44.00;;;;;19.08;59.91;102408.81;146605;633;47011;-71
2022/10/17 06:16:42;;;;;;;;;49.00;39.25;;;;;19.02;59.58;102410.31;146604;570;46016;-72
2022/10/17 06:19:40;;;;;;;;;40.75;33.75;;;;;18.85;59.18;102407.84;146605;581;46020;-72
2022/10/17 06:22:49;;;;;;;;;35.25;30.50;;;;;18.62;60.97;102406.75;146602;633;46017;-72
2022/10/17 06:25:45;;;;;;;;;33.00;29.75;;;;;18.62;60.33;102413.75;146605;589;46020;-72
2022/10/17 06:28:49;;;;;;;;;27.50;25.25;;;;;18.61;61.01;102409.34;146602;601;46916;-71
2022/10/17 06:31:43;;;;;;;;;27.50;24.50;;;;;18.69;60.21;102414.09;146604;576;46020;-72
2022/10/17 06:34:40;;;;;;;;;24.50;21.50;;;;;18.72;59.36;102423.84;146606;610;46012;-72
2022/10/17 06:37:49;;;;;;;;;25.25;24.00;;;;;18.67;60.30;102422.75;146603;589;46010;-72
2022/10/17 06:40:41;;;;;;;;;25.00;22.75;;;;;18.71;60.84;102411.53;146603;564;46014;-72
2022/10/17 06:43:39;;;;;;;;;24.75;23.00;;;;;18.85;59.22;102415.72;146602;564;46021;-72
2022/10/17 06:46:42;;;;;;;;;22.00;20.50;;;;;18.93;59.56;102424.81;146600;589;46016;-72
2022/10/17 06:49:52;;;;;;;;;25.75;21.75;;;;;19.02;60.70;102421.72;146606;608;46031;-72
2022/10/17 06:52:45;;;;;;;;;23.50;21.25;;;;;19.14;60.12;102429.25;146603;610;46030;-73
2022/10/17 06:55:41;;;;;;;;;21.50;20.75;;;;;19.31;59.83;102424.69;146600;586;46020;-72
2022/10/17 06:58:57;;;;;;;;;24.00;21.25;;;;;17.81;60.04;102119.59;146601;622;46016;-71
2022/10/17 07:01:51;;;;;;;;;25.00;23.00;;;;;19.71;59.44;102424.66;146606;572;46020;-73
2022/10/17 07:04:43;;;;;;;;;22.50;21.75;;;;;19.91;58.68;102425.47;146601;652;46016;-73
2022/10/17 07:07:38;;;;;;;;;21.25;19.25;;;;;20.09;58.51;102430.56;146605;578;46020;-72
2022/10/17 07:10:37;;;;;;;;;21.25;19.50;;;;;20.21;58.16;102438.03;146603;571;46016;-73
2022/10/17 07:13:37;;;;;;;;;22.00;19.50;;;;;20.36;57.85;102437.75;146605;646;46021;-72
2022/10/17 07:16:32;;;;;;;;;21.75;20.00;;;;;20.52;57.51;102442.78;146605;615;47012;-79
2022/10/17 07:19:35;;;;;;;;;20.00;18.50;;;;;20.65;57.97;102447.66;146606;572;46013;-76
2022/10/17 07:22:38;;;;;;;;;21.75;21.00;;;;;20.83;56.39;102443.94;146602;596;46016;-77
2022/10/17 07:25:33;;;;;;;;;25.25;21.00;;;;;20.91;55.70;102448.66;146604;575;46012;-76
2022/10/17 07:28:25;;;;;;;;;25.50;24.00;;;;;20.95;56.50;102447.00;146602;604;46017;-74
2022/10/17 07:31:22;;;;;;;;;25.00;22.00;;;;;21.01;57.30;102444.59;146613;582;46020;-74
2022/10/17 07:34:29;;;;;;;;;24.00;22.25;;;;;21.16;57.64;102445.12;146610;570;46016;-74
2022/10/17 07:37:32;;;;;;;;;;;;;;;;;;;;;
2022/10/17 07:40:25;;;;;;;;;28.00;25.25;;;;;21.59;55.24;102437.84;146610;602;46016;-76
2022/10/17 07:43:17;;;;;;;;;28.00;25.75;;;;;21.73;55.64;102439.19;146614;578;46010;-75
2022/10/17 07:46:10;;;;;;;;;24.50;23.25;;;;;21.88;55.21;102430.84;146609;569;46016;-80
2022/10/17 07:49:05;;;;;;;;;23.25;19.75;;;;;21.98;54.18;102430.28;146613;601;46020;-79
2022/10/17 07:51:58;;;;;;;;;27.25;24.25;;;;;22.02;52.40;102426.87;146608;593;47012;-78
2022/10/17 07:54:50;;;;;;;;;22.50;18.00;;;;;22.02;53.20;102428.62;146612;654;46010;-73
2022/10/17 07:57:42;;;;;;;;;24.75;22.00;;;;;22.06;53.86;102426.16;146609;579;46017;-83
2022/10/17 08:00:35;;;;;;;;;23.25;21.25;;;;;22.09;53.68;102422.72;146613;565;46010;-82
2022/10/17 08:03:34;;;;;;;;;21.00;20.25;;;;;22.24;54.41;102433.78;146604;645;47913;-85
2022/10/17 08:06:38;;;;;;;;;21.25;20.00;;;;;22.37;52.25;102435.06;146609;589;46033;-81
2022/10/17 08:09:33;;;;;;;;;20.25;19.75;;;;;22.48;52.78;102438.91;146606;606;46913;-82
2022/10/17 08:12:31;;;;;;;;;22.00;19.25;;;;;22.52;51.97;102438.16;146613;665;46011;-81
2022/10/17 08:15:30;;;;;;;;;24.25;22.00;;;;;22.53;52.67;102437.28;146608;698;47012;-84
2022/10/17 08:18:32;;;;;;;;;22.50;20.25;;;;;22.58;52.88;102440.06;146614;565;46010;-83
2022/10/17 08:21:48;;;;;;;;;;;;;;;;;;;;;
2022/10/17 08:24:45;;;;;;;;;22.50;20.75;;;;;22.78;53.01;102427.44;146611;583;46020;-85
2022/10/17 08:27:40;;;;;;;;;22.00;20.00;;;;;22.87;53.07;102429.44;146610;587;46016;-84
2022/10/17 08:30:47;;;;;;;;;20.75;19.25;;;;;22.92;52.64;102433.97;146613;595;46012;-80
2022/10/17 08:33:48;;;;;;;;;19.25;18.50;;;;;22.95;51.33;102430.56;146609;593;46017;-85
2022/10/17 08:36:43;;;;;;;;;21.75;21.00;;;;;23.00;52.61;102435.12;146610;601;46020;-83
2022/10/17 08:39:59;;;;;;;;;19.25;19.25;;;;;23.07;54.29;102428.25;146605;575;46016;-82
2022/10/17 08:43:51;;;;;;;;;18.75;14.50;;;;;23.23;53.24;102429.56;146616;613;46010;-84
2022/10/17 08:46:49;;;;;;;;;19.75;17.75;;;;;23.35;51.73;102424.56;146608;645;46016;-79
2022/10/17 08:49:52;;;;;;;;;18.25;16.00;;;;;23.36;52.01;102421.06;146612;678;46021;-83
2022/10/17 08:53:10;;;;;;;;;20.75;17.25;;;;;21.48;55.15;102089.09;146609;650;46016;-81
2022/10/17 08:56:11;;;;;;;;;17.50;14.50;;;;;23.31;49.38;102420.06;146612;608;46021;-80
2022/10/17 08:59:03;;;;;;;;;20.00;15.75;;;;;23.27;51.48;102419.09;146611;569;46014;-80
2022/10/17 09:03:08;;;;;;;;;18.00;17.00;;;;;21.66;55.27;102137.12;146612;654;46020;-82
2022/10/17 09:06:45;;;;;;;;;17.00;17.00;;;;;21.69;54.73;102138.97;146608;590;46016;-81
2022/10/17 09:10:14;;;;;;;;;12.00;12.00;;;;;21.74;53.63;102118.84;146611;625;46020;-81
2022/10/17 09:13:45;;;;;;;;;16.25;15.75;;;;;23.51;53.09;102418.81;146608;639;46033;-78
2022/10/17 09:17:28;;;;;;;;;15.50;14.75;;;;;21.98;53.24;102138.87;146613;600;46010;-77
2022/10/17 09:20:57;;;;;;;;;15.25;15.00;;;;;23.55;52.48;102417.16;146607;637;46011;-80
2022/10/17 09:24:04;;;;;;;;;15.75;15.25;;;;;23.60;50.34;102411.97;146610;666;46020;-81
2022/10/17 09:27:17;;;;;;;;;16.75;16.50;;;;;23.69;50.09;102409.56;146610;574;46014;-80
2022/10/17 09:31:14;;;;;;;;;11.00;11.00;;;;;22.23;50.29;102128.13;146611;565;46028;-83
2022/10/17 09:34:14;;;;;;;;;14.50;13.00;;;;;23.76;51.16;102398.25;146608;593;46016;-83
2022/10/17 09:37:21;;;;;;;;;13.75;13.00;;;;;23.69;51.52;102396.31;146615;647;46010;-79
2022/10/17 09:40:34;;;;;;;;;12.00;12.00;;;;;23.60;51.43;102385.47;146611;605;46035;-82
2022/10/17 09:43:39;;;;;;;;;13.33;12.67;;;;;23.56;51.68;102387.16;146612;665;46010;-80
2022/10/17 09:46:59;;;;;;;;;13.00;13.00;;;;;23.55;53.66;102400.34;146610;572;46913;-81
2022/10/17 09:49:52;;;;;;;;;12.75;10.75;;;;;23.50;49.70;102394.94;146614;565;46010;-81
2022/10/17 09:53:00;;;;;;;;;12.25;11.50;;;;;23.46;51.69;102396.63;146608;647;46016;-82
2022/10/17 09:55:57;;;;;;;;;11.25;11.25;;;;;23.57;49.79;102381.00;146615;587;45021;-86
2022/10/17 09:59:05;;;;;;;;;15.75;13.50;;;;;23.67;48.77;102382.09;146612;564;46913;-79
2022/10/17 10:02:39;;;;;;;;;11.00;11.00;;;;;22.39;52.51;102128.50;146613;573;46010;-84
2022/10/17 10:05:36;;;;;;;;;14.00;12.75;;;;;23.91;49.59;102388.00;146605;711;46018;-81
2022/10/17 10:08:34;;;;;;;;;13.00;12.00;;;;;23.98;48.44;102389.94;146614;698;46012;-81
2022/10/17 10:11:53;;;;;;;;;13.00;11.00;;;;;24.02;46.09;102390.00;146608;705;46017;-83
2022/10/17 10:14:57;;;;;;;;;11.00;11.00;;;;;24.03;48.02;102389.16;146612;622;46020;-79
2022/10/17 10:17:49;;;;;;;;;13.25;12.25;;;;;23.94;46.53;102381.88;146611;717;46013;-81
2022/10/17 10:20:45;;;;;;;;;10.75;10.75;;;;;23.77;48.27;102383.25;146615;729;46010;-84
2022/10/17 10:23:39;;;;;;;;;13.25;11.00;;;;;23.62;48.30;102381.12;146609;673;46023;-80
2022/10/17 10:26:44;;;;;;;;;12.25;10.75;;;;;23.35;48.99;102382.22;146614;674;46021;-81
2022/10/17 10:29:43;;;;;;;;;13.00;11.25;;;;;23.16;47.33;102380.88;146608;636;46012;-82
2022/10/17 10:32:39;;;;;;;;;6.75;5.25;;;;;23.01;49.01;102375.19;146607;586;46021;-82
2022/10/17 10:36:12;;;;;;;;;7.50;7.50;;;;;21.50;51.26;102092.69;146604;571;46033;-85
2022/10/17 10:39:37;;;;;;;;;12.00;11.50;;;;;21.65;52.65;102090.47;146608;664;45021;-84
2022/10/17 10:42:42;;;;;;;;;10.75;9.75;;;;;23.38;50.97;102366.41;146603;700;46016;-81
2022/10/17 10:45:48;;;;;;;;;10.75;10.75;;;;;23.46;49.98;102354.28;146602;571;46020;-82
2022/10/17 10:49:16;;;;;;;;;14.25;12.50;;;;;23.60;50.65;102349.28;146605;733;46012;-86
2022/10/17 10:52:34;;;;;;;;;11.00;11.00;;;;;23.86;49.55;102342.00;146606;660;46031;-83
2022/10/17 10:55:39;;;;;;;;;11.75;11.75;;;;;24.05;46.61;102338.00;146604;699;46017;-83
2022/10/17 10:59:20;;;;;;;;;8.33;7.00;;;;;23.19;50.87;102173.66;146606;573;46010;-81
2022/10/17 11:02:49;;;;;;;;;11.00;9.75;;;;;22.67;48.57;102063.97;146605;573;46013;-80
2022/10/17 11:06:27;;;;;;;;;11.75;11.00;;;;;22.86;48.74;102049.41;146605;658;46020;-79
2022/10/17 11:10:05;;;;;;;;;12.25;11.00;;;;;24.57;44.17;102344.34;146603;674;46017;-82
2022/10/17 11:13:39;;;;;;;;;14.00;13.00;;;;;24.65;47.24;102324.19;146606;682;46012;-85
2022/10/17 11:17:13;;;;;;;;;8.00;7.00;;;;;22.94;45.15;102009.09;146608;590;46012;-79
2022/10/17 11:20:57;;;;;;;;;11.00;10.00;;;;;23.03;40.65;102026.91;146604;582;46020;-81
2022/10/17 11:24:35;;;;;;;;;10.00;9.00;;;;;23.23;43.86;102030.84;146605;591;46017;-81
2022/10/17 11:27:35;;;;;;;;;8.00;7.00;;;;;25.06;39.15;102321.37;146606;676;46020;-83
2022/10/17 11:30:40;;;;;;;;;6.33;6.00;;;;;25.24;38.91;102327.91;146605;565;46016;-83
2022/10/17 11:34:28;;;;;;;;;;;;;;;;;;;;;
2022/10/17 11:37:51;;;;;;;;;10.00;9.00;;;;;25.53;40.27;102320.38;146605;626;46034;-83
2022/10/17 11:40:53;;;;;;;;;9.00;8.50;;;;;25.61;39.53;102316.09;146605;569;47010;-80
2022/10/17 11:44:18;;;;;;;;;11.33;10.67;;;;;25.63;37.30;102308.13;146605;611;46012;-81
2022/10/17 11:47:46;;;;;;;;;11.67;9.67;;;;;25.61;39.89;102305.44;146608;566;46021;-79
2022/10/17 11:50:59;;;;;;;;;10.33;9.67;;;;;23.98;39.26;102011.06;146605;609;46012;-73
2022/10/17 11:54:15;;;;;;;;;;;;;;;;;;;;;
2022/10/17 11:57:55;;;;;;;;;9.00;9.00;;;;;23.80;39.60;101973.69;146606;654;47012;-73
2022/10/17 12:01:23;;;;;;;;;10.67;9.33;;;;;25.63;36.72;102285.09;146608;590;46020;-74
2022/10/17 12:04:51;;;;;;;;;11.00;11.00;;;;;25.58;38.12;102276.19;146603;582;46913;-72
2022/10/17 12:08:11;;;;;;;;;10.75;9.50;;;;;25.56;35.57;102270.84;146602;687;47914;-72
2022/10/17 12:11:40;;;;;;;;;11.00;9.00;;;;;25.48;38.89;102285.78;146604;565;46014;-72
2022/10/17 12:14:53;;;;;;;;;13.25;13.00;;;;;25.43;42.28;102265.34;146608;640;46010;-73
2022/10/17 12:18:18;;;;;;;;;11.33;9.67;;;;;25.40;41.32;102267.97;146603;634;46017;-73
2022/10/17 12:21:11;;;;;;;;;13.75;12.00;;;;;25.39;37.39;102274.13;146601;575;48012;-72
2022/10/17 12:24:03;;;;;;;;;11.75;11.00;;;;;25.41;36.40;102277.69;146602;570;46914;-74
2022/10/17 12:27:03;;;;;;;;;13.00;13.00;;;;;25.40;40.38;102276.81;146603;689;46020;-74
2022/10/17 12:30:35;;;;;;;;;11.75;11.75;;;;;23.75;41.47;102015.09;146602;602;46016;-73
2022/10/17 12:34:01;;;;;;;;;14.67;13.00;;;;;23.71;42.28;101992.06;146605;563;46020;-73
2022/10/17 12:37:05;;;;;;;;;13.50;11.50;;;;;25.34;36.78;102256.38;146603;607;46031;-72
2022/10/17 12:40:01;;;;;;;;;13.67;13.00;;;;;25.28;37.77;102250.97;146607;592;46010;-73
2022/10/17 12:42:59;;;;;;;;;14.50;13.75;;;;;25.24;38.26;102246.50;146605;602;46035;-72
2022/10/17 12:46:04;;;;;;;;;15.75;13.25;;;;;25.27;37.66;102243.87;146604;676;46010;-72
2022/10/17 12:49:46;;;;;;;;;12.00;10.25;;;;;23.60;42.93;101967.12;146603;677;46033;-72
2022/10/17 12:53:04;;;;;;;;;8.00;8.00;;;;;23.41;39.64;101974.72;146609;688;46011;-72
2022/10/17 12:56:05;;;;;;;;;13.00;13.00;;;;;24.64;39.02;102255.19;146604;567;46913;-72
2022/10/17 12:59:29;;;;;;;;;10.50;10.25;;;;;24.35;41.59;102273.19;146605;615;46010;-72
2022/10/17 13:02:27;;;;;;;;;13.25;12.75;;;;;24.17;40.24;102261.38;146602;575;46017;-72
2022/10/17 13:05:41;;;;;;;;;13.50;12.50;;;;;23.21;38.04;102074.03;146607;615;46010;-73
2022/10/17 13:08:58;;;;;;;;;11.25;10.75;;;;;22.59;39.44;101961.63;146603;616;46039;-73
2022/10/17 13:11:56;;;;;;;;;11.33;10.00;;;;;24.35;37.71;102252.88;146611;579;46010;-73
2022/10/17 13:14:56;;;;;;;;;12.00;10.75;;;;;24.51;37.72;102259.38;146605;573;46017;-72
2022/10/17 13:17:59;;;;;;;;;9.33;9.00;;;;;24.65;37.24;102247.28;146607;669;46012;-71
2022/10/17 13:21:19;;;;;;;;;9.00;8.75;;;;;23.21;38.38;101997.28;146603;691;46918;-72
2022/10/17 13:24:45;;;;;;;;;12.33;11.33;;;;;22.63;40.74;101940.53;146605;632;46010;-72
2022/10/17 13:27:44;;;;;;;;;12.00;10.67;;;;;24.29;34.65;102249.22;146606;597;46012;-73
2022/10/17 13:30:51;;;;;;;;;12.25;12.25;;;;;24.30;39.72;102249.25;146605;580;46010;-72
2022/10/17 13:33:55;;;;;;;;;13.75;13.50;;;;;24.33;38.89;102256.34;146603;675;46016;-73
2022/10/17 13:36:54;;;;;;;;;13.25;12.75;;;;;24.31;38.67;102258.09;146607;566;46010;-73
2022/10/17 13:39:56;;;;;;;;;11.75;11.25;;;;;24.32;36.92;102268.72;146606;657;46012;-72
2022/10/17 13:42:54;;;;;;;;;11.00;10.00;;;;;24.36;36.36;102267.94;146603;652;46020;-73
2022/10/17 13:46:15;;;;;;;;;9.50;9.50;;;;;24.29;38.71;102275.72;146606;571;46013;-73
2022/10/17 13:49:46;;;;;;;;;14.25;11.50;;;;;22.34;41.24;101983.97;146607;653;46020;-73
2022/10/17 13:52:39;;;;;;;;;10.50;10.50;;;;;23.86;41.17;102277.50;146602;690;46013;-73
2022/10/17 13:55:33;;;;;;;;;11.75;10.50;;;;;23.70;36.33;102279.81;146606;576;46010;-75
2022/10/17 13:58:58;;;;;;;;;13.00;12.00;;;;;23.53;42.04;102291.78;146604;693;46016;-74
2022/10/17 14:02:11;;;;;;;;;;;;;;;;;;;;;
2022/10/17 14:05:32;;;;;;;;;17.75;17.75;;;;;21.71;38.48;101985.87;146602;578;46016;-73
2022/10/17 14:08:49;;;;;;;;;12.75;11.50;;;;;23.38;38.80;102299.34;146606;674;46010;-75
2022/10/17 14:12:11;;;;;;;;;11.75;10.50;;;;;21.48;40.56;101999.37;146602;580;46915;-74
2022/10/17 14:15:11;;;;;;;;;10.25;10.25;;;;;22.89;36.89;102299.00;146609;576;46010;-73
2022/10/17 14:18:10;;;;;;;;;10.50;9.50;;;;;21.50;41.26;102108.53;146602;620;46016;-73
2022/10/17 14:21:10;;;;;;;;;8.75;8.00;;;;;22.49;39.52;102297.97;146605;583;46020;-74
2022/10/17 14:24:35;;;;;;;;;10.50;10.00;;;;;22.30;44.23;102306.22;146604;564;46016;-73
2022/10/17 14:28:06;;;;;;;;;10.33;9.00;;;;;22.21;41.49;102300.66;146607;613;46012;-74
2022/10/17 14:31:23;;;;;;;;;9.75;8.75;;;;;22.15;42.04;102304.03;146610;604;47012;-74
2022/10/17 14:34:45;;;;;;;;;;;;;;;;;;;;;